sensor_id;sensor_type;location;lat;lon;timestamp;P1;durP1;ratioP1;P2;durP2;ratioP2
59766;SDS011;46248;58.364;25.582;2023-12-29T00:02:01;5.50;;;2.30;;
59766;SDS011;46248;58.364;25.582;2023-12-29T00:05:24;4.45;;;2.60;;
59766;SDS011;46248;58.364;25.582;2023-12-29T00:08:49;4.00;;;2.33;;
59766;SDS011;46248;58.364;25.582;2023-12-29T00:12:13;5.65;;;3.00;;
59766;SDS011;46248;58.364;25.582;2023-12-29T00:15:37;6.95;;;3.75;;
59766;SDS011;46248;58.364;25.582;2023-12-29T00:19:00;7.00;;;3.90;;
59766;SDS011;46248;58.364;25.582;2023-12-29T00:22:23;8.60;;;5.45;;
59766;SDS011;46248;58.364;25.582;2023-12-29T00:25:48;7.68;;;4.65;;
59766;SDS011;46248;58.364;25.582;2023-12-29T00:29:11;6.70;;;3.28;;
59766;SDS011;46248;58.364;25.582;2023-12-29T00:32:35;4.35;;;2.38;;
59766;SDS011;46248;58.364;25.582;2023-12-29T00:35:58;7.13;;;2.80;;
59766;SDS011;46248;58.364;25.582;2023-12-29T00:39:20;5.10;;;2.25;;
59766;SDS011;46248;58.364;25.582;2023-12-29T00:42:49;4.18;;;2.47;;
59766;SDS011;46248;58.364;25.582;2023-12-29T00:46:13;5.53;;;2.88;;
59766;SDS011;46248;58.364;25.582;2023-12-29T00:49:39;5.25;;;2.95;;
59766;SDS011;46248;58.364;25.582;2023-12-29T00:53:02;9.73;;;3.17;;
59766;SDS011;46248;58.364;25.582;2023-12-29T00:56:25;5.85;;;2.97;;
59766;SDS011;46248;58.364;25.582;2023-12-29T00:59:48;5.32;;;2.83;;
59766;SDS011;46248;58.364;25.582;2023-12-29T01:03:11;8.38;;;2.95;;
59766;SDS011;46248;58.364;25.582;2023-12-29T01:06:35;9.63;;;3.30;;
59766;SDS011;46248;58.364;25.582;2023-12-29T01:09:58;7.95;;;3.85;;
59766;SDS011;46248;58.364;25.582;2023-12-29T01:13:21;39.33;;;6.15;;
59766;SDS011;46248;58.364;25.582;2023-12-29T01:16:44;6.53;;;2.85;;
59766;SDS011;46248;58.364;25.582;2023-12-29T01:20:08;5.97;;;2.17;;
59766;SDS011;46248;58.364;25.582;2023-12-29T01:23:33;5.70;;;2.35;;
59766;SDS011;46248;58.364;25.582;2023-12-29T01:26:55;6.18;;;2.70;;
59766;SDS011;46248;58.364;25.582;2023-12-29T01:30:19;4.97;;;2.40;;
59766;SDS011;46248;58.364;25.582;2023-12-29T01:33:42;9.80;;;2.60;;
59766;SDS011;46248;58.364;25.582;2023-12-29T01:37:05;5.07;;;1.85;;
59766;SDS011;46248;58.364;25.582;2023-12-29T01:40:29;8.48;;;2.38;;
59766;SDS011;46248;58.364;25.582;2023-12-29T01:47:46;4.57;;;2.65;;
59766;SDS011;46248;58.364;25.582;2023-12-29T01:51:09;8.90;;;2.65;;
59766;SDS011;46248;58.364;25.582;2023-12-29T01:54:34;8.25;;;2.78;;
59766;SDS011;46248;58.364;25.582;2023-12-29T01:58:03;10.32;;;2.88;;
59766;SDS011;46248;58.364;25.582;2023-12-29T02:01:26;12.85;;;3.13;;
59766;SDS011;46248;58.364;25.582;2023-12-29T02:04:50;7.65;;;2.95;;
59766;SDS011;46248;58.364;25.582;2023-12-29T02:08:13;6.13;;;2.25;;
59766;SDS011;46248;58.364;25.582;2023-12-29T02:11:36;7.00;;;2.30;;
59766;SDS011;46248;58.364;25.582;2023-12-29T02:15:00;4.63;;;2.17;;
59766;SDS011;46248;58.364;25.582;2023-12-29T02:18:23;8.50;;;3.05;;
59766;SDS011;46248;58.364;25.582;2023-12-29T02:21:47;6.45;;;2.25;;
59766;SDS011;46248;58.364;25.582;2023-12-29T02:25:12;4.88;;;1.23;;
59766;SDS011;46248;58.364;25.582;2023-12-29T02:28:36;4.32;;;1.63;;
59766;SDS011;46248;58.364;25.582;2023-12-29T02:32:06;4.35;;;1.30;;
59766;SDS011;46248;58.364;25.582;2023-12-29T02:35:38;6.78;;;2.17;;
59766;SDS011;46248;58.364;25.582;2023-12-29T02:39:04;4.00;;;2.03;;
59766;SDS011;46248;58.364;25.582;2023-12-29T02:42:29;5.10;;;2.08;;
59766;SDS011;46248;58.364;25.582;2023-12-29T02:45:52;10.85;;;2.28;;
59766;SDS011;46248;58.364;25.582;2023-12-29T02:49:14;8.50;;;2.78;;
59766;SDS011;46248;58.364;25.582;2023-12-29T02:52:37;7.22;;;1.95;;
59766;SDS011;46248;58.364;25.582;2023-12-29T02:56:00;4.38;;;2.10;;
59766;SDS011;46248;58.364;25.582;2023-12-29T02:59:25;3.25;;;1.23;;
59766;SDS011;46248;58.364;25.582;2023-12-29T03:02:47;4.63;;;1.48;;
59766;SDS011;46248;58.364;25.582;2023-12-29T03:06:11;3.22;;;0.98;;
59766;SDS011;46248;58.364;25.582;2023-12-29T03:09:33;6.43;;;1.30;;
59766;SDS011;46248;58.364;25.582;2023-12-29T03:12:56;2.63;;;1.20;;
59766;SDS011;46248;58.364;25.582;2023-12-29T03:16:21;5.28;;;2.20;;
59766;SDS011;46248;58.364;25.582;2023-12-29T03:19:43;1.88;;;1.00;;
59766;SDS011;46248;58.364;25.582;2023-12-29T03:23:06;3.25;;;1.00;;
59766;SDS011;46248;58.364;25.582;2023-12-29T03:26:29;1.98;;;0.75;;
59766;SDS011;46248;58.364;25.582;2023-12-29T03:29:52;2.00;;;0.60;;
59766;SDS011;46248;58.364;25.582;2023-12-29T03:33:16;0.65;;;0.45;;
59766;SDS011;46248;58.364;25.582;2023-12-29T03:36:39;2.13;;;0.95;;
59766;SDS011;46248;58.364;25.582;2023-12-29T03:40:02;1.98;;;0.60;;
59766;SDS011;46248;58.364;25.582;2023-12-29T03:43:26;2.33;;;0.60;;
59766;SDS011;46248;58.364;25.582;2023-12-29T03:46:49;1.42;;;0.40;;
59766;SDS011;46248;58.364;25.582;2023-12-29T03:50:13;3.50;;;2.17;;
59766;SDS011;46248;58.364;25.582;2023-12-29T03:53:36;6.30;;;3.53;;
59766;SDS011;46248;58.364;25.582;2023-12-29T03:56:59;3.75;;;2.03;;
59766;SDS011;46248;58.364;25.582;2023-12-29T04:00:21;2.08;;;1.40;;
59766;SDS011;46248;58.364;25.582;2023-12-29T04:03:44;1.40;;;0.90;;
59766;SDS011;46248;58.364;25.582;2023-12-29T04:07:09;0.75;;;0.73;;
59766;SDS011;46248;58.364;25.582;2023-12-29T04:10:32;1.35;;;0.93;;
59766;SDS011;46248;58.364;25.582;2023-12-29T04:13:55;7.22;;;0.77;;
59766;SDS011;46248;58.364;25.582;2023-12-29T04:17:18;2.03;;;0.80;;
59766;SDS011;46248;58.364;25.582;2023-12-29T04:20:41;0.82;;;0.68;;
59766;SDS011;46248;58.364;25.582;2023-12-29T04:24:05;2.40;;;0.70;;
59766;SDS011;46248;58.364;25.582;2023-12-29T04:27:28;1.23;;;0.90;;
59766;SDS011;46248;58.364;25.582;2023-12-29T04:30:51;0.60;;;0.60;;
59766;SDS011;46248;58.364;25.582;2023-12-29T04:34:15;1.40;;;0.65;;
59766;SDS011;46248;58.364;25.582;2023-12-29T04:37:38;0.80;;;0.77;;
59766;SDS011;46248;58.364;25.582;2023-12-29T04:41:02;1.20;;;0.50;;
59766;SDS011;46248;58.364;25.582;2023-12-29T04:44:26;2.05;;;0.70;;
59766;SDS011;46248;58.364;25.582;2023-12-29T04:47:49;1.70;;;0.73;;
59766;SDS011;46248;58.364;25.582;2023-12-29T04:51:12;3.00;;;0.68;;
59766;SDS011;46248;58.364;25.582;2023-12-29T04:54:35;1.15;;;0.88;;
59766;SDS011;46248;58.364;25.582;2023-12-29T04:57:59;2.03;;;1.02;;
59766;SDS011;46248;58.364;25.582;2023-12-29T05:01:23;2.80;;;1.50;;
59766;SDS011;46248;58.364;25.582;2023-12-29T05:04:46;2.97;;;1.48;;
59766;SDS011;46248;58.364;25.582;2023-12-29T05:08:09;2.55;;;1.38;;
59766;SDS011;46248;58.364;25.582;2023-12-29T05:11:32;2.97;;;0.98;;
59766;SDS011;46248;58.364;25.582;2023-12-29T05:14:57;2.42;;;1.60;;
59766;SDS011;46248;58.364;25.582;2023-12-29T05:18:20;3.10;;;2.03;;
59766;SDS011;46248;58.364;25.582;2023-12-29T05:21:43;2.92;;;1.70;;
59766;SDS011;46248;58.364;25.582;2023-12-29T05:25:07;3.10;;;2.67;;
59766;SDS011;46248;58.364;25.582;2023-12-29T05:28:30;5.50;;;2.35;;
59766;SDS011;46248;58.364;25.582;2023-12-29T05:31:54;15.40;;;4.85;;
59766;SDS011;46248;58.364;25.582;2023-12-29T05:35:18;5.88;;;2.97;;
59766;SDS011;46248;58.364;25.582;2023-12-29T05:38:42;6.70;;;3.05;;
59766;SDS011;46248;58.364;25.582;2023-12-29T05:42:08;6.07;;;3.47;;
59766;SDS011;46248;58.364;25.582;2023-12-29T05:45:31;9.15;;;4.35;;
59766;SDS011;46248;58.364;25.582;2023-12-29T05:48:55;5.88;;;3.38;;
59766;SDS011;46248;58.364;25.582;2023-12-29T05:52:18;9.27;;;4.25;;
59766;SDS011;46248;58.364;25.582;2023-12-29T05:55:41;9.65;;;5.28;;
59766;SDS011;46248;58.364;25.582;2023-12-29T05:59:04;9.60;;;4.97;;
59766;SDS011;46248;58.364;25.582;2023-12-29T06:02:27;12.85;;;5.28;;
59766;SDS011;46248;58.364;25.582;2023-12-29T06:05:51;38.70;;;11.43;;
59766;SDS011;46248;58.364;25.582;2023-12-29T06:09:14;19.95;;;8.43;;
59766;SDS011;46248;58.364;25.582;2023-12-29T06:12:37;12.35;;;5.78;;
59766;SDS011;46248;58.364;25.582;2023-12-29T06:16:00;8.63;;;4.60;;
59766;SDS011;46248;58.364;25.582;2023-12-29T06:19:23;3.03;;;2.10;;
59766;SDS011;46248;58.364;25.582;2023-12-29T06:22:48;5.53;;;2.70;;
59766;SDS011;46248;58.364;25.582;2023-12-29T06:26:14;5.65;;;3.05;;
59766;SDS011;46248;58.364;25.582;2023-12-29T06:34:11;13.43;;;7.40;;
59766;SDS011;46248;58.364;25.582;2023-12-29T06:37:34;4.90;;;3.50;;
59766;SDS011;46248;58.364;25.582;2023-12-29T06:41:00;4.03;;;3.00;;
59766;SDS011;46248;58.364;25.582;2023-12-29T06:44:24;5.05;;;2.28;;
59766;SDS011;46248;58.364;25.582;2023-12-29T06:47:47;2.40;;;1.58;;
59766;SDS011;46248;58.364;25.582;2023-12-29T06:51:15;1.95;;;1.30;;
59766;SDS011;46248;58.364;25.582;2023-12-29T06:54:39;1.52;;;1.20;;
59766;SDS011;46248;58.364;25.582;2023-12-29T06:58:03;1.23;;;1.00;;
59766;SDS011;46248;58.364;25.582;2023-12-29T07:01:26;2.60;;;1.40;;
59766;SDS011;46248;58.364;25.582;2023-12-29T07:04:49;3.25;;;1.70;;
59766;SDS011;46248;58.364;25.582;2023-12-29T07:08:12;3.92;;;2.20;;
59766;SDS011;46248;58.364;25.582;2023-12-29T07:11:36;5.75;;;2.97;;
59766;SDS011;46248;58.364;25.582;2023-12-29T07:15:00;4.50;;;2.25;;
59766;SDS011;46248;58.364;25.582;2023-12-29T07:18:23;6.22;;;2.63;;
59766;SDS011;46248;58.364;25.582;2023-12-29T07:21:46;7.60;;;3.92;;
59766;SDS011;46248;58.364;25.582;2023-12-29T07:25:09;4.82;;;2.83;;
59766;SDS011;46248;58.364;25.582;2023-12-29T07:28:33;2.90;;;2.03;;
59766;SDS011;46248;58.364;25.582;2023-12-29T07:31:56;3.38;;;1.70;;
59766;SDS011;46248;58.364;25.582;2023-12-29T07:35:19;5.93;;;2.03;;
59766;SDS011;46248;58.364;25.582;2023-12-29T07:38:42;4.25;;;1.80;;
59766;SDS011;46248;58.364;25.582;2023-12-29T07:42:06;3.08;;;1.55;;
59766;SDS011;46248;58.364;25.582;2023-12-29T07:45:29;1.58;;;1.15;;
59766;SDS011;46248;58.364;25.582;2023-12-29T07:48:54;2.80;;;1.30;;
59766;SDS011;46248;58.364;25.582;2023-12-29T07:52:17;3.13;;;1.40;;
59766;SDS011;46248;58.364;25.582;2023-12-29T07:55:42;2.30;;;1.25;;
59766;SDS011;46248;58.364;25.582;2023-12-29T07:59:07;3.28;;;1.30;;
59766;SDS011;46248;58.364;25.582;2023-12-29T08:02:30;4.30;;;1.50;;
59766;SDS011;46248;58.364;25.582;2023-12-29T08:05:55;2.75;;;2.00;;
59766;SDS011;46248;58.364;25.582;2023-12-29T08:09:18;7.43;;;2.33;;
59766;SDS011;46248;58.364;25.582;2023-12-29T08:12:41;8.05;;;2.90;;
59766;SDS011;46248;58.364;25.582;2023-12-29T08:16:05;11.77;;;3.70;;
59766;SDS011;46248;58.364;25.582;2023-12-29T08:19:29;12.60;;;4.28;;
59766;SDS011;46248;58.364;25.582;2023-12-29T08:22:55;12.02;;;4.88;;
59766;SDS011;46248;58.364;25.582;2023-12-29T08:26:18;12.35;;;4.15;;
59766;SDS011;46248;58.364;25.582;2023-12-29T08:29:41;11.35;;;4.40;;
59766;SDS011;46248;58.364;25.582;2023-12-29T08:33:04;16.17;;;5.72;;
59766;SDS011;46248;58.364;25.582;2023-12-29T08:36:27;14.48;;;6.88;;
59766;SDS011;46248;58.364;25.582;2023-12-29T08:39:52;15.77;;;6.38;;
59766;SDS011;46248;58.364;25.582;2023-12-29T08:43:17;9.70;;;4.18;;
59766;SDS011;46248;58.364;25.582;2023-12-29T08:46:42;13.40;;;4.55;;
59766;SDS011;46248;58.364;25.582;2023-12-29T08:50:05;7.47;;;2.70;;
59766;SDS011;46248;58.364;25.582;2023-12-29T08:53:29;10.43;;;3.80;;
59766;SDS011;46248;58.364;25.582;2023-12-29T08:56:56;11.18;;;3.47;;
59766;SDS011;46248;58.364;25.582;2023-12-29T09:00:18;5.90;;;2.65;;
59766;SDS011;46248;58.364;25.582;2023-12-29T09:03:41;6.75;;;3.70;;
59766;SDS011;46248;58.364;25.582;2023-12-29T09:07:04;8.35;;;3.17;;
59766;SDS011;46248;58.364;25.582;2023-12-29T09:10:28;6.78;;;2.85;;
59766;SDS011;46248;58.364;25.582;2023-12-29T09:13:52;7.90;;;2.22;;
59766;SDS011;46248;58.364;25.582;2023-12-29T09:17:15;5.43;;;1.85;;
59766;SDS011;46248;58.364;25.582;2023-12-29T09:20:38;6.63;;;2.22;;
59766;SDS011;46248;58.364;25.582;2023-12-29T09:24:01;3.42;;;1.70;;
59766;SDS011;46248;58.364;25.582;2023-12-29T09:27:25;3.10;;;2.22;;
59766;SDS011;46248;58.364;25.582;2023-12-29T09:30:49;5.90;;;2.03;;
59766;SDS011;46248;58.364;25.582;2023-12-29T09:34:12;8.75;;;2.47;;
59766;SDS011;46248;58.364;25.582;2023-12-29T09:37:35;6.03;;;2.25;;
59766;SDS011;46248;58.364;25.582;2023-12-29T09:40:59;9.18;;;3.20;;
59766;SDS011;46248;58.364;25.582;2023-12-29T09:47:52;17.75;;;4.28;;
59766;SDS011;46248;58.364;25.582;2023-12-29T09:51:16;4.95;;;2.20;;
59766;SDS011;46248;58.364;25.582;2023-12-29T09:54:44;20.23;;;4.82;;
59766;SDS011;46248;58.364;25.582;2023-12-29T09:58:08;8.65;;;3.72;;
59766;SDS011;46248;58.364;25.582;2023-12-29T10:01:34;11.55;;;6.28;;
59766;SDS011;46248;58.364;25.582;2023-12-29T10:05:00;9.88;;;5.32;;
59766;SDS011;46248;58.364;25.582;2023-12-29T10:08:25;7.65;;;4.82;;
59766;SDS011;46248;58.364;25.582;2023-12-29T10:11:49;26.42;;;8.13;;
59766;SDS011;46248;58.364;25.582;2023-12-29T10:15:15;10.25;;;5.00;;
59766;SDS011;46248;58.364;25.582;2023-12-29T10:18:46;17.55;;;5.75;;
59766;SDS011;46248;58.364;25.582;2023-12-29T10:22:25;8.15;;;4.40;;
59766;SDS011;46248;58.364;25.582;2023-12-29T10:25:54;7.45;;;4.57;;
59766;SDS011;46248;58.364;25.582;2023-12-29T10:29:17;4.60;;;3.28;;
59766;SDS011;46248;58.364;25.582;2023-12-29T10:32:41;5.35;;;3.17;;
59766;SDS011;46248;58.364;25.582;2023-12-29T10:36:04;9.52;;;4.30;;
59766;SDS011;46248;58.364;25.582;2023-12-29T10:39:34;17.50;;;7.88;;
59766;SDS011;46248;58.364;25.582;2023-12-29T10:42:58;9.70;;;5.38;;
59766;SDS011;46248;58.364;25.582;2023-12-29T10:46:27;9.05;;;7.07;;
59766;SDS011;46248;58.364;25.582;2023-12-29T10:49:50;12.73;;;6.90;;
59766;SDS011;46248;58.364;25.582;2023-12-29T10:53:21;13.85;;;8.73;;
59766;SDS011;46248;58.364;25.582;2023-12-29T10:56:46;7.47;;;4.10;;
59766;SDS011;46248;58.364;25.582;2023-12-29T11:00:09;4.70;;;3.08;;
59766;SDS011;46248;58.364;25.582;2023-12-29T11:03:34;14.70;;;6.90;;
59766;SDS011;46248;58.364;25.582;2023-12-29T11:06:57;6.45;;;4.38;;
59766;SDS011;46248;58.364;25.582;2023-12-29T11:10:20;7.82;;;4.53;;
59766;SDS011;46248;58.364;25.582;2023-12-29T11:13:45;8.48;;;4.90;;
59766;SDS011;46248;58.364;25.582;2023-12-29T11:17:08;7.57;;;4.70;;
59766;SDS011;46248;58.364;25.582;2023-12-29T11:20:32;14.45;;;5.97;;
59766;SDS011;46248;58.364;25.582;2023-12-29T11:23:58;7.03;;;4.70;;
59766;SDS011;46248;58.364;25.582;2023-12-29T11:27:21;9.00;;;5.60;;
59766;SDS011;46248;58.364;25.582;2023-12-29T11:30:47;5.65;;;4.70;;
59766;SDS011;46248;58.364;25.582;2023-12-29T11:34:14;5.28;;;3.60;;
59766;SDS011;46248;58.364;25.582;2023-12-29T11:37:48;5.68;;;3.92;;
59766;SDS011;46248;58.364;25.582;2023-12-29T11:41:33;8.80;;;6.68;;
59766;SDS011;46248;58.364;25.582;2023-12-29T11:45:22;7.93;;;7.13;;
59766;SDS011;46248;58.364;25.582;2023-12-29T11:48:57;6.60;;;5.53;;
59766;SDS011;46248;58.364;25.582;2023-12-29T11:52:32;13.50;;;12.10;;
59766;SDS011;46248;58.364;25.582;2023-12-29T11:55:56;13.35;;;9.25;;
59766;SDS011;46248;58.364;25.582;2023-12-29T11:59:19;15.27;;;10.80;;
59766;SDS011;46248;58.364;25.582;2023-12-29T12:02:43;8.75;;;6.70;;
59766;SDS011;46248;58.364;25.582;2023-12-29T12:06:08;6.03;;;5.40;;
59766;SDS011;46248;58.364;25.582;2023-12-29T12:09:30;7.57;;;5.43;;
59766;SDS011;46248;58.364;25.582;2023-12-29T12:12:55;14.13;;;9.38;;
59766;SDS011;46248;58.364;25.582;2023-12-29T12:20:11;6.63;;;4.68;;
59766;SDS011;46248;58.364;25.582;2023-12-29T12:23:36;6.85;;;4.05;;
59766;SDS011;46248;58.364;25.582;2023-12-29T12:27:01;7.85;;;4.30;;
59766;SDS011;46248;58.364;25.582;2023-12-29T12:30:25;8.38;;;4.50;;
59766;SDS011;46248;58.364;25.582;2023-12-29T12:33:53;5.47;;;3.78;;
59766;SDS011;46248;58.364;25.582;2023-12-29T12:37:20;5.95;;;3.15;;
59766;SDS011;46248;58.364;25.582;2023-12-29T12:40:45;4.68;;;4.10;;
59766;SDS011;46248;58.364;25.582;2023-12-29T12:44:08;6.68;;;4.90;;
59766;SDS011;46248;58.364;25.582;2023-12-29T12:47:34;17.75;;;9.05;;
59766;SDS011;46248;58.364;25.582;2023-12-29T12:51:07;10.68;;;6.38;;
59766;SDS011;46248;58.364;25.582;2023-12-29T12:54:31;10.52;;;6.35;;
59766;SDS011;46248;58.364;25.582;2023-12-29T12:57:58;6.60;;;5.32;;
59766;SDS011;46248;58.364;25.582;2023-12-29T13:01:21;6.07;;;4.53;;
59766;SDS011;46248;58.364;25.582;2023-12-29T13:04:44;4.53;;;4.10;;
59766;SDS011;46248;58.364;25.582;2023-12-29T13:08:08;9.30;;;6.03;;
59766;SDS011;46248;58.364;25.582;2023-12-29T13:11:32;7.20;;;4.20;;
59766;SDS011;46248;58.364;25.582;2023-12-29T13:15:06;6.20;;;3.80;;
59766;SDS011;46248;58.364;25.582;2023-12-29T13:18:31;6.03;;;3.28;;
59766;SDS011;46248;58.364;25.582;2023-12-29T13:21:54;6.75;;;4.30;;
59766;SDS011;46248;58.364;25.582;2023-12-29T13:25:18;10.23;;;4.53;;
59766;SDS011;46248;58.364;25.582;2023-12-29T13:28:43;7.63;;;4.43;;
59766;SDS011;46248;58.364;25.582;2023-12-29T13:32:09;18.40;;;7.50;;
59766;SDS011;46248;58.364;25.582;2023-12-29T13:35:35;27.60;;;10.75;;
59766;SDS011;46248;58.364;25.582;2023-12-29T13:39:15;23.65;;;11.93;;
59766;SDS011;46248;58.364;25.582;2023-12-29T13:42:46;37.85;;;15.68;;
59766;SDS011;46248;58.364;25.582;2023-12-29T13:46:11;26.13;;;10.55;;
59766;SDS011;46248;58.364;25.582;2023-12-29T13:49:37;19.90;;;6.57;;
59766;SDS011;46248;58.364;25.582;2023-12-29T13:53:02;10.95;;;5.35;;
59766;SDS011;46248;58.364;25.582;2023-12-29T13:56:25;9.90;;;4.93;;
59766;SDS011;46248;58.364;25.582;2023-12-29T13:59:48;7.28;;;4.90;;
59766;SDS011;46248;58.364;25.582;2023-12-29T14:03:15;12.52;;;5.00;;
59766;SDS011;46248;58.364;25.582;2023-12-29T14:06:51;10.32;;;5.90;;
59766;SDS011;46248;58.364;25.582;2023-12-29T14:10:18;14.02;;;6.45;;
59766;SDS011;46248;58.364;25.582;2023-12-29T14:13:41;18.88;;;7.50;;
59766;SDS011;46248;58.364;25.582;2023-12-29T14:17:05;17.83;;;6.68;;
59766;SDS011;46248;58.364;25.582;2023-12-29T14:20:34;13.25;;;6.53;;
59766;SDS011;46248;58.364;25.582;2023-12-29T14:24:09;13.98;;;6.97;;
59766;SDS011;46248;58.364;25.582;2023-12-29T14:27:33;22.33;;;10.55;;
59766;SDS011;46248;58.364;25.582;2023-12-29T14:31:00;22.05;;;10.98;;
59766;SDS011;46248;58.364;25.582;2023-12-29T14:34:24;20.17;;;9.18;;
59766;SDS011;46248;58.364;25.582;2023-12-29T14:37:47;24.55;;;10.82;;
59766;SDS011;46248;58.364;25.582;2023-12-29T14:41:12;24.67;;;10.68;;
59766;SDS011;46248;58.364;25.582;2023-12-29T14:44:35;32.95;;;15.43;;
59766;SDS011;46248;58.364;25.582;2023-12-29T14:48:00;37.80;;;15.27;;
59766;SDS011;46248;58.364;25.582;2023-12-29T14:51:24;34.35;;;16.63;;
59766;SDS011;46248;58.364;25.582;2023-12-29T14:55:22;27.60;;;12.38;;
59766;SDS011;46248;58.364;25.582;2023-12-29T14:58:35;29.48;;;13.45;;
59766;SDS011;46248;58.364;25.582;2023-12-29T15:01:58;24.65;;;12.65;;
59766;SDS011;46248;58.364;25.582;2023-12-29T15:05:22;22.63;;;11.25;;
59766;SDS011;46248;58.364;25.582;2023-12-29T15:08:44;20.67;;;10.48;;
59766;SDS011;46248;58.364;25.582;2023-12-29T15:12:08;21.25;;;10.27;;
59766;SDS011;46248;58.364;25.582;2023-12-29T15:15:32;28.52;;;17.17;;
59766;SDS011;46248;58.364;25.582;2023-12-29T15:18:56;32.75;;;20.90;;
59766;SDS011;46248;58.364;25.582;2023-12-29T15:22:19;26.02;;;16.13;;
59766;SDS011;46248;58.364;25.582;2023-12-29T15:25:47;19.75;;;13.63;;
59766;SDS011;46248;58.364;25.582;2023-12-29T15:29:09;19.27;;;11.57;;
59766;SDS011;46248;58.364;25.582;2023-12-29T15:32:34;19.63;;;10.93;;
59766;SDS011;46248;58.364;25.582;2023-12-29T15:35:57;18.45;;;9.18;;
59766;SDS011;46248;58.364;25.582;2023-12-29T15:39:20;15.50;;;8.27;;
59766;SDS011;46248;58.364;25.582;2023-12-29T15:42:42;22.33;;;9.80;;
59766;SDS011;46248;58.364;25.582;2023-12-29T15:46:12;21.98;;;11.90;;
59766;SDS011;46248;58.364;25.582;2023-12-29T15:49:39;37.30;;;17.63;;
59766;SDS011;46248;58.364;25.582;2023-12-29T15:53:02;41.35;;;22.60;;
59766;SDS011;46248;58.364;25.582;2023-12-29T15:56:26;22.52;;;12.40;;
59766;SDS011;46248;58.364;25.582;2023-12-29T15:59:51;23.92;;;12.60;;
59766;SDS011;46248;58.364;25.582;2023-12-29T16:03:14;21.92;;;11.43;;
59766;SDS011;46248;58.364;25.582;2023-12-29T16:06:39;28.83;;;15.15;;
59766;SDS011;46248;58.364;25.582;2023-12-29T16:10:03;18.33;;;12.35;;
59766;SDS011;46248;58.364;25.582;2023-12-29T16:13:28;21.65;;;11.27;;
59766;SDS011;46248;58.364;25.582;2023-12-29T16:16:50;23.67;;;11.82;;
59766;SDS011;46248;58.364;25.582;2023-12-29T16:20:13;25.02;;;12.45;;
59766;SDS011;46248;58.364;25.582;2023-12-29T16:23:38;18.40;;;7.97;;
59766;SDS011;46248;58.364;25.582;2023-12-29T16:27:01;29.73;;;12.75;;
59766;SDS011;46248;58.364;25.582;2023-12-29T16:30:24;53.58;;;24.17;;
59766;SDS011;46248;58.364;25.582;2023-12-29T16:33:48;84.25;;;34.88;;
59766;SDS011;46248;58.364;25.582;2023-12-29T16:37:11;99.30;;;39.05;;
59766;SDS011;46248;58.364;25.582;2023-12-29T16:40:35;120.60;;;40.42;;
59766;SDS011;46248;58.364;25.582;2023-12-29T16:43:59;59.60;;;21.90;;
59766;SDS011;46248;58.364;25.582;2023-12-29T16:47:22;30.00;;;13.82;;
59766;SDS011;46248;58.364;25.582;2023-12-29T16:50:48;23.75;;;12.25;;
59766;SDS011;46248;58.364;25.582;2023-12-29T16:54:11;43.67;;;19.40;;
59766;SDS011;46248;58.364;25.582;2023-12-29T16:57:35;53.10;;;20.17;;
59766;SDS011;46248;58.364;25.582;2023-12-29T17:00:59;43.13;;;16.10;;
59766;SDS011;46248;58.364;25.582;2023-12-29T17:04:25;38.25;;;16.50;;
59766;SDS011;46248;58.364;25.582;2023-12-29T17:07:49;39.85;;;15.38;;
59766;SDS011;46248;58.364;25.582;2023-12-29T17:11:12;57.60;;;19.38;;
59766;SDS011;46248;58.364;25.582;2023-12-29T17:14:38;45.30;;;18.15;;
59766;SDS011;46248;58.364;25.582;2023-12-29T17:18:00;28.17;;;12.93;;
59766;SDS011;46248;58.364;25.582;2023-12-29T17:21:24;16.85;;;8.40;;
59766;SDS011;46248;58.364;25.582;2023-12-29T17:24:47;19.45;;;8.95;;
59766;SDS011;46248;58.364;25.582;2023-12-29T17:28:10;14.68;;;7.82;;
59766;SDS011;46248;58.364;25.582;2023-12-29T17:31:35;15.35;;;7.72;;
59766;SDS011;46248;58.364;25.582;2023-12-29T17:35:04;15.82;;;7.25;;
59766;SDS011;46248;58.364;25.582;2023-12-29T17:38:29;15.70;;;7.10;;
59766;SDS011;46248;58.364;25.582;2023-12-29T17:41:52;13.93;;;7.55;;
59766;SDS011;46248;58.364;25.582;2023-12-29T17:45:15;15.00;;;6.60;;
59766;SDS011;46248;58.364;25.582;2023-12-29T17:48:40;23.48;;;10.70;;
59766;SDS011;46248;58.364;25.582;2023-12-29T17:52:03;23.90;;;10.68;;
59766;SDS011;46248;58.364;25.582;2023-12-29T17:55:27;18.00;;;8.20;;
59766;SDS011;46248;58.364;25.582;2023-12-29T17:58:49;16.65;;;8.45;;
59766;SDS011;46248;58.364;25.582;2023-12-29T18:02:13;14.15;;;6.65;;
59766;SDS011;46248;58.364;25.582;2023-12-29T18:05:37;17.13;;;6.32;;
59766;SDS011;46248;58.364;25.582;2023-12-29T18:09:00;15.40;;;6.95;;
59766;SDS011;46248;58.364;25.582;2023-12-29T18:12:24;18.63;;;6.82;;
59766;SDS011;46248;58.364;25.582;2023-12-29T18:15:47;12.35;;;6.03;;
59766;SDS011;46248;58.364;25.582;2023-12-29T18:19:10;14.68;;;5.63;;
59766;SDS011;46248;58.364;25.582;2023-12-29T18:22:35;11.93;;;5.72;;
59766;SDS011;46248;58.364;25.582;2023-12-29T18:26:00;13.45;;;7.60;;
59766;SDS011;46248;58.364;25.582;2023-12-29T18:29:24;20.13;;;8.70;;
59766;SDS011;46248;58.364;25.582;2023-12-29T18:32:47;19.80;;;8.90;;
59766;SDS011;46248;58.364;25.582;2023-12-29T18:36:11;16.50;;;8.20;;
59766;SDS011;46248;58.364;25.582;2023-12-29T18:39:35;22.65;;;9.18;;
59766;SDS011;46248;58.364;25.582;2023-12-29T18:42:59;23.20;;;10.60;;
59766;SDS011;46248;58.364;25.582;2023-12-29T18:46:22;27.38;;;11.73;;
59766;SDS011;46248;58.364;25.582;2023-12-29T18:49:46;29.23;;;11.15;;
59766;SDS011;46248;58.364;25.582;2023-12-29T18:53:09;91.70;;;36.90;;
59766;SDS011;46248;58.364;25.582;2023-12-29T18:56:34;129.00;;;49.25;;
59766;SDS011;46248;58.364;25.582;2023-12-29T18:59:57;112.20;;;38.22;;
59766;SDS011;46248;58.364;25.582;2023-12-29T19:03:21;257.58;;;107.55;;
59766;SDS011;46248;58.364;25.582;2023-12-29T19:06:45;171.35;;;70.28;;
59766;SDS011;46248;58.364;25.582;2023-12-29T19:10:10;157.70;;;63.47;;
59766;SDS011;46248;58.364;25.582;2023-12-29T19:13:34;175.40;;;85.85;;
59766;SDS011;46248;58.364;25.582;2023-12-29T19:17:00;139.65;;;74.88;;
59766;SDS011;46248;58.364;25.582;2023-12-29T19:20:22;83.75;;;45.30;;
59766;SDS011;46248;58.364;25.582;2023-12-29T19:23:46;84.93;;;52.20;;
59766;SDS011;46248;58.364;25.582;2023-12-29T19:27:09;55.42;;;34.75;;
59766;SDS011;46248;58.364;25.582;2023-12-29T19:30:33;34.63;;;21.05;;
59766;SDS011;46248;58.364;25.582;2023-12-29T19:33:56;25.63;;;13.70;;
59766;SDS011;46248;58.364;25.582;2023-12-29T19:37:19;23.42;;;10.82;;
59766;SDS011;46248;58.364;25.582;2023-12-29T19:40:42;18.65;;;8.43;;
59766;SDS011;46248;58.364;25.582;2023-12-29T19:44:06;11.75;;;5.70;;
59766;SDS011;46248;58.364;25.582;2023-12-29T19:47:32;9.43;;;4.47;;
59766;SDS011;46248;58.364;25.582;2023-12-29T19:50:56;13.02;;;5.68;;
59766;SDS011;46248;58.364;25.582;2023-12-29T19:54:19;13.77;;;5.43;;
59766;SDS011;46248;58.364;25.582;2023-12-29T19:57:42;10.95;;;4.50;;
59766;SDS011;46248;58.364;25.582;2023-12-29T20:01:06;7.63;;;4.40;;
59766;SDS011;46248;58.364;25.582;2023-12-29T20:04:31;7.45;;;3.70;;
59766;SDS011;46248;58.364;25.582;2023-12-29T20:07:55;7.97;;;3.45;;
59766;SDS011;46248;58.364;25.582;2023-12-29T20:11:19;10.27;;;3.92;;
59766;SDS011;46248;58.364;25.582;2023-12-29T20:14:42;10.10;;;4.13;;
59766;SDS011;46248;58.364;25.582;2023-12-29T20:18:05;11.27;;;4.57;;